Date,TemperatureHighF,TemperatureAvgF,TemperatureLowF,DewpointHighF,DewpointAvgF,DewpointLowF,HumidityHigh,HumidityAvg,HumidityLow,PressureMaxIn,PressureMinIn,WindSpeedMaxMPH,WindSpeedAvgMPH,GustSpeedMaxMPH,PrecipitationSumIn
2013-1-1,50,46,41,50,45,31,99,96,60,30.09,29.93,1,0,2,0.27
2013-1-2,48,44,40,44,41,39,99,89,70,30.17,29.99,1,0,3,0.20
2013-1-3,45,38,28,39,35,27,97,90,70,30.26,30.14,0,0,2,0.00
2013-1-4,50,40,24,34,27,23,98,63,40,30.32,30.19,2,0,6,0.00
2013-1-5,49,39,25,34,29,23,92,69,44,30.39,30.27,1,0,4,0.00
2013-1-6,50,42,33,42,38,32,97,84,68,30.19,30.04,1,0,2,0.01
2013-1-7,51,39,27,36,32,27,98,77,50,30.43,30.17,1,0,2,0.00
2013-1-8,56,46,33,43,40,32,95,79,57,30.46,30.35,1,0,1,0.00
2013-1-9,67,53,33,53,47,32,98,81,58,30.44,30.34,1,0,2,0.00
2013-1-10,63,54,44,49,46,42,99,75,51,30.51,30.40,2,0,2,0.00
2013-1-11,50,47,42,49,46,41,99,98,88,30.41,30.14,0,0,0,0.26
2013-1-12,71,60,49,66,58,49,100,94,81,30.16,30.08,1,0,3,0.01
2013-1-13,74,65,58,63,60,56,97,84,66,30.10,30.03,2,0,8,0.00
2013-1-14,69,64,58,65,62,57,98,93,84,30.13,30.06,1,0,4,0.00
2013-1-15,60,46,45,60,46,44,99,98,96,30.21,30.04,1,0,2,0.03
2013-1-16,49,46,43,49,46,43,100,99,99,30.06,29.97,0,0,2,0.21
2013-1-17,50,45,33,50,44,32,100,99,96,30.15,29.84,3,1,5,1.36
2013-1-18,44,36,26,33,30,26,99,80,54,30.53,30.14,1,0,4,0.11
2013-1-19,53,40,24,36,31,23,99,73,43,30.50,30.17,2,0,3,0.01
2013-1-20,63,50,33,40,36,31,93,63,36,30.08,29.98,2,1,7,0.00
2013-1-21,59,45,26,38,31,23,97,60,36,30.07,29.86,2,0,3,0.00
2013-1-22,39,32,25,26,10,3,74,42,22,30.28,29.96,2,0,4,0.00
2013-1-23,41,30,16,21,15,7,89,58,35,30.38,30.06,2,0,7,0.00
2013-1-24,39,32,24,25,12,5,69,44,31,30.50,30.10,2,1,6,0.00
2013-1-25,27,25,21,26,20,8,95,82,49,30.49,30.12,0,0,1,0.00
2013-1-26,42,33,25,34,30,24,97,90,69,30.39,30.11,1,0,2,0.02
2013-1-27,41,36,31,31,29,28,91,78,61,30.60,30.49,1,0,2,0.02
2013-1-28,51,45,33,48,40,32,97,83,69,30.47,30.22,2,0,3,0.12
2013-1-29,72,59,38,60,54,38,100,84,65,30.22,30.05,2,0,5,0.00
2013-1-30,73,68,60,65,63,58,95,85,75,29.93,29.39,4,2,8,0.25
2013-1-31,60,43,29,57,28,22,94,56,35,30.01,29.46,4,2,17,0.11
2013-2-1,38,33,22,30,14,5,77,48,27,30.38,29.92,3,1,7,0.00
2013-2-2,44,39,20,38,19,12,87,47,29,30.40,30.04,2,0,4,0.00
2013-2-3,50,42,29,33,28,25,86,60,46,29.99,29.84,2,1,6,0.00
2013-2-4,48,40,24,31,27,22,93,62,40,30.14,30.01,1,0,3,0.00
2013-2-5,61,49,35,39,36,31,89,62,38,29.98,29.86,2,1,5,0.00
2013-2-6,63,46,28,38,30,22,97,60,22,30.26,29.96,1,0,2,0.00
2013-2-7,46,42,34,42,38,28,97,86,73,30.31,29.97,1,0,3,0.35
2013-2-8,55,46,36,48,40,31,97,82,61,30.06,29.81,2,1,3,0.50
2013-2-9,53,41,26,32,25,20,89,56,29,30.35,30.05,2,0,3,0.00
2013-2-10,53,47,26,41,30,24,94,53,32,30.44,30.19,2,0,4,0.06
2013-2-11,62,58,51,60,57,51,100,96,92,30.08,29.91,2,0,4,0.08
2013-2-12,60,52,44,53,37,30,98,60,32,30.07,29.88,2,0,4,0.00
2013-2-13,47,45,42,46,44,37,98,96,82,29.83,29.61,1,0,5,0.05
2013-2-14,51,42,28,37,34,28,99,76,51,30.06,29.98,1,0,2,0.00
2013-2-15,61,48,28,42,36,27,98,66,34,30.08,29.92,2,0,5,0.01
2013-2-16,44,34,30,37,32,26,98,94,74,29.95,29.82,1,0,3,0.28
2013-2-17,38,30,20,19,15,11,86,54,33,30.29,30.08,3,1,10,0.00
2013-2-18,52,40,15,29,23,14,96,54,32,30.41,30.24,1,0,3,0.02
2013-2-19,49,42,30,49,41,28,98,95,72,30.25,29.86,2,0,5,0.22
2013-2-20,52,40,27,33,24,17,98,60,26,30.13,29.96,2,0,4,0.00
2013-2-21,56,44,22,29,23,20,91,46,27,30.24,30.10,1,0,3,0.00
2013-2-22,42,36,33,36,34,29,98,94,61,30.33,30.12,1,0,1,0.51
2013-2-23,43,41,36,42,40,35,99,98,98,30.11,29.81,1,0,1,0.79
2013-2-24,63,51,34,45,37,32,93,64,33,30.02,29.87,2,1,5,0.10
2013-2-25,42,37,31,32,26,24,92,67,51,30.22,30.02,1,0,3,0.00
2013-2-26,56,47,33,56,46,29,100,98,81,30.12,29.54,2,0,4,0.79
2013-2-27,60,48,36,43,40,35,98,76,50,29.78,29.69,2,1,4,0.00
2013-2-28,50,43,33,41,32,28,99,68,44,29.85,29.69,2,1,6,0.00
2013-3-1,48,42,28,34,31,26,96,66,50,29.91,29.83,2,0,7,0.00
2013-3-2,48,41,30,32,28,21,94,61,48,29.92,29.80,1,0,4,0.00
2013-3-3,47,39,27,25,23,20,77,52,41,29.98,29.84,2,1,5,0.00
2013-3-4,52,38,20,25,20,16,87,53,26,30.11,30.01,2,1,4,0.00
2013-3-5,46,41,30,45,38,25,99,88,55,30.07,29.55,1,0,2,0.33
2013-3-6,47,41,36,44,32,28,99,70,52,30.03,29.54,4,2,13,0.03
2013-3-7,54,44,30,34,31,26,90,61,44,30.23,30.10,2,1,6,0.00
2013-3-8,57,47,34,30,28,26,72,50,32,30.29,30.14,2,1,4,0.00
2013-3-9,65,49,31,36,32,28,88,56,29,30.33,30.21,1,0,3,0.00
2013-3-10,69,58,43,37,33,28,75,42,23,30.30,30.18,2,0,5,0.00
2013-3-11,67,60,34,54,51,31,93,72,58,30.15,29.91,2,1,3,0.00
2013-3-12,72,62,48,63,53,35,99,74,47,29.93,29.73,2,1,6,0.73
2013-3-13,58,48,31,36,28,21,95,49,28,30.11,29.93,3,1,7,0.00
2013-3-14,55,44,26,25,22,20,81,44,28,30.24,30.10,2,1,6,0.00
2013-3-15,62,52,26,38,33,23,90,52,33,30.18,29.89,3,1,6,0.00
2013-3-16,79,67,40,51,47,35,85,52,35,29.89,29.65,3,1,6,0.00
2013-3-17,62,52,43,51,44,39,93,76,63,30.14,29.98,2,1,9,0.00
2013-3-18,43,41,38,42,40,37,98,96,95,30.18,29.83,1,0,3,0.52
2013-3-19,68,56,41,48,34,20,99,49,22,30.00,29.83,3,1,6,0.00
2013-3-20,58,46,33,31,23,16,82,44,23,30.10,29.77,2,0,7,0.00
2013-3-21,47,40,31,29,18,12,82,42,28,29.96,29.77,3,1,6,0.00
2013-3-22,54,41,21,28,20,15,80,45,24,30.08,29.96,2,1,5,0.00
2013-3-23,55,46,34,34,29,23,87,54,37,30.04,29.90,1,0,2,0.00
2013-3-24,40,38,37,39,37,36,97,95,94,29.72,29.56,2,0,5,0.71
2013-3-25,48,42,34,40,30,25,98,65,45,29.82,29.56,4,1,10,0.01
2013-3-26,49,43,28,32,29,26,90,59,48,30.11,29.81,2,0,6,0.00
2013-3-27,53,44,30,28,25,23,79,51,31,30.22,30.13,3,1,6,0.00
2013-3-28,59,47,27,31,28,23,87,50,30,30.29,30.15,3,1,5,0.00
2013-3-29,61,49,26,34,29,23,92,52,26,30.33,30.17,2,0,6,0.00
2013-3-30,67,57,37,44,41,34,91,58,39,30.23,30.06,2,0,3,0.00
2013-3-31,69,61,53,62,57,53,98,86,66,29.90,29.78,2,1,5,0.55
2013-4-1,73,63,48,55,46,41,99,57,33,29.93,29.79,3,1,6,0.03
2013-4-2,64,53,33,43,33,28,93,51,28,30.14,29.94,2,1,5,0.00
2013-4-3,63,53,42,36,27,20,79,40,23,30.28,30.18,2,1,4,0.00
2013-4-4,45,41,39,40,37,29,97,84,57,30.32,29.92,2,1,4,0.89
2013-4-5,68,52,38,50,46,38,98,80,49,30.00,29.88,2,0,5,0.01
2013-4-6,70,56,36,42,36,30,95,51,26,30.25,30.14,2,0,4,0.00
2013-4-7,74,64,48,50,45,40,87,52,34,30.25,30.09,2,1,4,0.00
2013-4-8,81,68,47,58,54,46,99,65,39,30.16,30.03,3,1,5,0.00
2013-4-9,86,74,52,61,58,52,99,61,39,30.16,30.03,2,1,5,0.00
2013-4-10,89,75,54,63,60,53,99,64,39,30.08,29.92,2,1,4,0.00
2013-4-11,83,73,60,67,63,58,97,74,49,29.97,29.76,2,1,4,0.00
2013-4-12,84,72,59,71,64,53,99,79,46,29.74,29.58,2,1,6,0.54
2013-4-13,78,65,45,48,44,41,92,51,28,29.98,29.86,2,0,5,0.00
2013-4-14,82,74,63,55,48,40,73,42,24,30.08,29.99,2,0,2,0.00
2013-4-15,72,66,58,60,59,54,97,79,63,30.17,30.01,1,0,1,0.04
2013-4-16,77,68,60,63,61,58,97,79,56,30.27,30.17,1,0,1,0.00
2013-4-17,85,69,52,67,62,52,99,80,53,30.22,30.08,1,0,3,0.00
2013-4-18,81,71,57,65,62,56,98,74,53,30.17,30.01,1,0,3,0.00
2013-4-19,83,73,64,70,67,63,98,82,59,30.01,29.69,3,1,7,0.65
2013-4-20,68,55,43,64,41,35,98,63,33,30.25,29.79,1,0,3,0.04
2013-4-21,64,57,44,45,43,41,90,62,46,30.46,30.38,1,0,3,0.00
2013-4-22,64,53,38,46,40,35,90,63,41,30.44,30.24,2,0,5,0.00
2013-4-23,71,60,49,54,50,46,95,73,51,30.26,30.10,1,0,2,0.04
2013-4-24,77,66,48,59,56,47,99,73,50,30.14,29.95,2,0,5,0.00
2013-4-25,75,61,46,56,46,42,93,61,33,30.25,29.99,1,0,3,0.00
2013-4-26,75,62,41,50,43,37,98,56,27,30.41,30.25,1,0,3,0.00
2013-4-27,74,64,50,55,51,45,95,67,38,30.36,30.24,1,0,3,0.00
2013-4-28,60,57,56,57,55,53,99,93,84,30.21,30.08,0,0,1,1.25
2013-4-29,75,64,56,66,62,56,100,93,71,30.08,29.94,1,0,2,0.40
2013-4-30,66,62,55,61,59,54,99,91,82,30.15,29.99,0,0,2,0.01
2013-5-1,62,59,57,59,58,56,97,93,89,30.29,30.18,1,0,4,0.01
2013-5-2,64,60,54,60,57,53,97,90,84,30.30,30.23,1,0,3,0.00
2013-5-3,70,62,49,58,53,45,99,74,62,30.24,30.13,1,0,3,0.01
2013-5-4,68,59,50,54,51,47,91,77,60,30.17,30.04,2,0,4,0.00
2013-5-5,59,58,53,57,55,50,96,91,86,30.04,29.94,1,0,2,0.01
2013-5-6,71,63,57,66,61,56,99,95,81,29.92,29.80,1,0,1,0.86
2013-5-7,73,61,52,59,55,51,100,82,49,29.93,29.84,1,0,3,0.00
2013-5-8,73,63,53,65,59,52,99,88,63,29.98,29.91,1,0,3,0.05
2013-5-9,82,69,50,65,59,50,100,75,47,30.05,29.97,1,0,3,0.01
2013-5-10,87,75,54,67,63,54,100,70,41,30.04,29.92,1,0,8,0.00
2013-5-11,84,73,65,69,65,60,97,78,52,29.93,29.76,2,0,5,0.03
2013-5-12,73,64,53,55,46,40,64,53,34,30.01,29.87,2,0,2,0.00
2013-5-13,70,59,44,45,40,35,93,53,31,30.16,30.01,2,0,5,0.00
2013-5-14,75,61,37,49,44,36,98,57,33,30.25,30.06,2,0,4,0.00
2013-5-15,90,75,52,66,61,46,88,64,42,30.06,29.88,2,0,4,0.00
2013-5-16,86,75,60,68,64,59,98,71,42,29.97,29.90,2,0,4,0.00
2013-5-17,88,78,63,69,66,62,97,70,45,30.06,29.96,1,0,3,0.00
2013-5-18,80,72,62,70,67,62,99,84,65,30.12,30.04,1,0,2,0.20
2013-5-19,80,72,67,72,68,67,99,91,74,30.12,30.02,1,0,7,0.50
2013-5-20,73,69,66,72,69,66,100,99,96,30.09,30.00,0,0,1,0.49
2013-5-21,84,74,66,76,71,66,100,91,72,30.03,29.92,1,0,3,0.11
2013-5-22,85,75,66,73,70,66,98,85,65,30.01,29.89,1,0,3,0.00
2013-5-23,80,73,65,72,69,64,99,89,72,29.93,29.79,1,0,3,0.34
2013-5-24,72,65,52,64,51,40,99,63,34,30.17,29.83,3,1,9,0.02
2013-5-25,77,63,41,55,46,38,98,58,30,30.27,30.12,2,0,4,0.00
2013-5-26,77,66,51,57,52,46,94,64,41,30.26,30.15,1,0,3,0.00
2013-5-27,83,72,53,61,57,53,99,63,38,30.26,30.13,1,0,2,0.00
2013-5-28,86,77,59,69,66,56,98,71,54,30.23,30.12,1,0,3,0.00
2013-5-29,86,76,60,69,66,59,99,73,53,30.22,30.13,1,0,2,0.00
2013-5-30,89,79,67,69,67,64,95,69,46,30.25,30.15,1,0,3,0.00
2013-5-31,89,79,67,71,69,65,95,72,51,30.21,30.07,1,0,5,0.00
2013-6-1,89,79,64,72,69,64,99,73,53,30.12,29.99,1,0,3,0.00
2013-6-2,88,82,72,72,70,69,94,70,56,29.98,29.87,1,0,3,0.10
2013-6-3,83,74,65,75,71,65,99,90,71,29.92,29.80,2,0,3,0.38
2013-6-4,70,66,64,68,65,64,98,97,93,30.03,29.92,0,0,0,0.00
2013-6-5,82,74,69,69,66,62,85,75,61,30.11,29.99,1,0,1,0.00
2013-6-6,74,71,66,73,71,66,99,98,97,29.92,29.79,0,0,1,0.52
2013-6-7,74,70,68,72,70,68,100,99,92,29.80,29.51,1,0,4,2.91
2013-6-8,85,76,67,76,71,66,100,87,66,30.07,29.79,1,0,3,0.09
2013-6-9,86,80,69,76,74,68,98,81,67,30.12,30.03,1,0,2,0.00
2013-6-10,84,75,71,79,74,70,100,94,78,30.03,29.86,2,0,4,1.22
2013-6-11,87,78,67,73,69,66,98,77,53,29.93,29.88,2,0,5,0.00
2013-6-12,92,80,62,78,73,61,100,82,59,29.96,29.83,1,0,4,0.00
2013-6-13,95,80,66,78,72,66,100,81,50,29.84,29.58,2,0,9,0.16
2013-6-14,83,74,60,65,62,58,100,69,44,29.98,29.78,1,0,3,0.01
2013-6-15,86,75,58,69,65,57,100,73,47,30.11,30.02,1,0,4,0.00
2013-6-16,87,80,64,73,70,63,96,73,59,30.07,29.98,2,0,6,0.00
2013-6-17,86,77,68,76,72,66,98,86,68,30.01,29.90,1,0,2,0.02
2013-6-18,84,75,69,76,72,68,99,90,73,29.95,29.73,1,0,5,0.55
2013-6-19,81,74,64,73,69,64,100,86,69,30.09,29.85,1,0,2,0.00
2013-6-20,84,74,64,70,66,63,99,77,51,30.21,30.09,1,0,2,0.00
2013-6-21,86,75,60,67,62,56,99,66,41,30.24,30.16,1,0,2,0.00
2013-6-22,82,74,69,75,71,68,99,92,75,30.18,30.08,0,0,1,0.19
2013-6-23,86,77,70,77,74,69,99,91,72,30.18,30.10,1,0,1,0.02
2013-6-24,86,78,70,79,74,68,100,89,75,30.18,30.06,0,0,1,0.02
2013-6-25,90,78,69,77,73,68,99,85,63,30.11,29.98,2,0,5,0.00
2013-6-26,89,78,68,79,73,68,100,85,66,30.00,29.86,2,0,8,0.11
2013-6-27,90,82,68,79,76,68,98,82,68,29.91,29.69,1,0,5,0.01
2013-6-28,92,81,71,78,74,70,99,81,60,29.68,29.55,1,0,3,1.22
2013-6-29,86,77,69,77,74,69,100,90,74,29.70,29.63,1,0,3,0.56
2013-6-30,86,73,68,78,71,68,100,94,75,29.85,29.70,1,0,2,6.27
2013-7-1,82,75,69,77,73,69,100,94,82,29.96,29.85,1,0,1,0.74
2013-7-2,75,73,72,74,73,72,100,99,97,30.15,29.96,1,0,1,0.31
2013-7-3,82,76,72,78,75,71,100,97,87,30.22,30.14,1,0,2,0.66
2013-7-4,86,79,72,78,76,71,100,90,73,30.25,30.14,1,0,2,0.03
2013-7-5,87,79,72,78,75,71,100,89,71,30.25,30.20,1,0,2,0.00
2013-7-6,87,79,72,78,75,70,100,88,73,30.23,30.09,0,0,1,0.00
2013-7-7,88,82,72,79,77,70,97,84,72,30.16,30.03,1,0,3,0.00
2013-7-8,90,80,72,78,75,71,99,84,65,30.15,30.06,1,0,3,0.00
2013-7-9,89,79,71,80,75,70,99,88,74,30.14,30.03,1,0,3,0.00
2013-7-10,90,79,71,79,76,70,99,88,67,30.08,29.92,1,0,4,0.23
2013-7-11,81,75,72,76,74,72,100,96,87,29.95,29.85,1,0,4,0.36
2013-7-12,77,73,70,74,72,70,100,95,88,30.00,29.87,1,0,2,0.02
2013-7-13,77,74,70,76,73,70,100,98,95,30.14,29.99,0,0,1,0.26
2013-7-14,86,80,72,78,75,71,99,87,72,30.26,30.21,1,0,1,0.00
2013-7-15,90,80,68,78,75,68,100,85,64,30.30,30.22,0,0,1,0.00
2013-7-16,92,82,67,79,74,66,98,77,58,30.26,30.15,0,0,1,0.03
2013-7-17,92,84,74,78,74,68,82,72,58,30.19,30.08,0,0,2,0.00
2013-7-18,91,83,74,78,73,68,82,73,62,30.11,30.01,1,0,6,0.00
2013-7-19,91,83,74,78,74,68,81,74,65,30.08,29.95,1,0,3,0.00
2013-7-20,89,81,75,79,74,68,82,79,70,30.01,29.89,1,0,3,0.07
2013-7-21,89,80,72,79,73,66,82,79,70,29.97,29.87,1,0,2,0.10
2013-7-22,89,80,71,78,72,66,83,78,67,29.93,29.80,1,0,5,0.00
2013-7-23,90,82,73,79,73,67,81,74,61,29.83,29.70,1,0,4,0.00
2013-7-24,92,81,71,79,71,65,82,74,59,29.82,29.71,1,0,2,0.56
2013-7-25,80,74,67,72,67,61,81,79,75,30.01,29.83,0,0,1,0.00
2013-7-26,85,78,68,73,68,62,80,71,60,30.08,30.00,1,0,2,0.00
2013-7-27,83,73,68,74,66,62,81,79,72,30.03,29.91,1,0,2,0.43
2013-7-28,86,79,67,76,71,62,82,77,67,29.99,29.90,1,0,3,0.00
2013-7-29,87,76,67,74,67,60,82,74,56,30.13,30.03,1,0,6,0.02
2013-7-30,88,76,60,75,67,54,83,75,55,30.20,30.11,1,0,2,0.00
2013-7-31,81,77,70,74,70,64,81,80,78,30.12,29.98,1,0,1,0.51
2013-8-1,86,76,71,76,69,64,81,79,74,29.99,29.83,1,0,2,0.07
2013-8-2,88,79,70,78,70,64,83,76,63,30.00,29.94,1,0,1,0.00
2013-8-3,90,81,71,79,73,64,84,78,67,29.99,29.88,1,0,4,0.00
2013-8-4,85,78,67,72,68,61,85,72,54,30.00,29.92,1,0,2,0.00
2013-8-5,82,75,65,72,67,59,85,77,64,30.07,29.97,1,0,1,0.00
2013-8-6,82,74,68,72,67,61,84,79,68,30.04,30.00,1,0,5,0.23
2013-8-7,85,77,68,76,70,62,84,79,68,30.08,30.00,1,0,3,0.00
2013-8-8,89,80,69,78,72,63,82,76,64,30.05,29.97,1,0,3,0.00
2013-8-9,91,81,74,80,74,67,84,79,69,30.03,29.95,1,0,7,0.00
2013-8-10,94,80,72,80,72,66,84,78,64,30.07,29.99,2,0,4,0.05
2013-8-11,92,84,76,80,76,69,84,76,65,30.08,29.98,1,0,3,0.01
2013-8-12,92,83,73,78,74,67,84,74,57,30.02,29.91,1,0,2,0.00
2013-8-13,86,78,71,79,72,65,84,81,77,29.94,29.75,1,0,2,0.81
2013-8-14,75,71,63,69,65,58,85,82,78,30.06,29.91,0,0,1,0.00
2013-8-15,75,67,58,65,60,53,86,79,62,30.15,30.05,1,0,1,0.00
2013-8-16,68,65,60,63,60,55,85,83,81,30.15,29.89,0,0,0,0.00
2013-8-17,71,67,61,65,61,55,84,81,81,29.95,29.89,0,0,1,0.24
2013-8-18,82,76,69,75,70,63,87,81,72,29.98,29.91,1,0,2,0.02
2013-8-19,73,70,67,69,64,61,85,82,81,29.94,29.87,0,0,0,0.17
2013-8-20,83,76,70,75,70,63,85,82,76,29.96,29.90,0,0,0,0.00
2013-8-21,86,76,70,77,70,64,85,82,74,30.00,29.87,1,0,2,0.67
2013-8-22,88,79,70,78,72,64,84,79,64,29.92,29.77,1,0,3,0.00
2013-8-23,87,77,66,77,71,61,87,81,67,29.85,29.70,1,0,2,0.00
2013-8-24,83,73,62,66,63,58,87,74,52,30.07,29.85,1,0,4,0.00
2013-8-25,80,72,58,66,62,54,86,72,53,30.17,30.06,1,0,4,0.00
2013-8-26,85,71,54,67,60,49,86,71,46,30.08,29.90,1,0,2,0.00
2013-8-27,87,76,59,76,69,54,86,78,62,29.84,29.74,1,0,2,0.00
2013-8-28,83,77,67,77,71,61,85,83,79,29.77,29.65,0,0,1,0.00
2013-8-29,87,80,71,77,72,66,86,79,67,29.78,29.65,1,0,2,0.00
2013-8-30,90,76,65,73,68,60,87,75,52,29.84,29.71,1,0,2,0.00
2013-8-31,87,78,67,76,72,61,86,80,68,29.75,29.63,1,0,2,0.00
2013-9-1,88,80,70,80,73,64,85,81,72,29.67,29.54,1,0,4,0.21
2013-9-2,87,78,70,79,72,64,85,81,72,29.67,29.57,1,0,2,0.00
2013-9-3,88,79,72,77,72,66,86,79,65,29.71,29.58,1,0,4,0.01
2013-9-4,87,75,64,76,69,60,88,82,69,29.86,29.71,1,0,2,0.00
2013-9-5,87,75,63,70,65,59,87,72,46,29.88,29.81,1,0,3,0.00
2013-9-6,84,73,61,66,63,57,88,72,53,29.95,29.86,1,0,4,0.00
2013-9-7,82,71,56,69,63,51,87,76,60,29.92,29.75,1,0,2,0.00
2013-9-8,87,78,63,70,65,59,86,66,46,29.77,29.69,1,0,2,0.00
2013-9-9,86,76,64,74,69,58,86,78,58,29.93,29.77,1,0,1,0.00
2013-9-10,88,78,64,74,69,59,87,75,57,30.01,29.91,1,0,5,0.00
2013-9-11,87,77,64,75,69,58,86,78,61,29.98,29.85,1,0,4,0.00
2013-9-12,89,78,67,76,70,61,87,76,60,29.85,29.58,2,0,4,0.00
2013-9-13,84,75,65,68,63,57,87,67,51,29.67,29.53,2,0,3,0.00
2013-9-14,76,67,57,60,55,51,88,68,51,29.91,29.67,1,0,4,0.00
2013-9-15,78,72,62,66,62,58,87,71,58,30.01,29.90,1,0,2,0.00
2013-9-16,84,75,62,71,65,57,86,73,51,29.96,29.81,1,0,3,0.32
2013-9-17,75,67,55,61,56,52,88,70,49,30.08,29.96,1,0,2,0.00
2013-9-18,73,62,50,57,52,46,88,72,42,30.09,29.95,1,0,2,0.00
2013-9-19,78,68,52,66,60,49,88,78,60,29.98,29.85,2,0,2,0.00
2013-9-20,72,68,64,67,63,60,88,86,83,29.86,29.74,0,0,1,0.08
2013-9-21,79,72,65,72,66,60,87,83,78,29.74,29.50,1,0,4,0.83
2013-9-22,66,63,62,61,58,57,84,83,83,29.56,29.50,1,0,2,0.95
2013-9-27,72,65,53,62,57,49,88,78,64,29.97,29.88,0,0,2,0.00
2013-9-28,69,62,48,59,55,43,88,78,63,30.04,29.94,1,0,5,0.00
2013-9-29,71,64,51,60,55,47,87,75,60,29.93,29.82,1,0,4,0.00
2013-9-30,71,58,51,61,54,47,87,85,68,29.89,29.79,1,0,2,0.00
2013-10-1,78,66,48,66,59,44,87,78,57,29.91,29.80,1,0,3,0.00
2013-10-2,80,69,56,67,61,51,87,77,55,29.92,29.82,1,0,2,0.00
2013-10-3,80,70,55,70,63,50,86,80,62,29.91,29.83,0,0,2,0.00
2013-10-4,82,72,58,70,64,53,87,78,57,29.92,29.83,1,0,3,0.00
2013-10-5,83,73,58,72,66,53,87,78,59,29.90,29.81,1,0,2,0.00
2013-10-6,80,76,70,72,70,65,87,82,71,29.84,29.70,1,0,3,0.00
2013-10-7,72,69,62,66,63,58,86,82,82,29.77,29.63,1,0,2,2.51
2013-10-8,62,59,54,58,52,49,88,78,71,29.99,29.76,1,0,4,0.21
2013-10-9,64,60,54,58,55,50,89,85,80,29.96,29.89,1,0,6,0.02
2013-10-10,61,59,54,57,54,50,88,86,84,29.82,29.72,0,0,2,0.21
2013-10-11,70,65,60,64,61,56,89,86,81,29.75,29.69,1,0,2,0.00
2013-10-12,69,65,61,65,61,57,89,88,84,29.86,29.75,1,0,2,0.01
2013-10-13,67,65,62,64,62,58,90,89,87,29.98,29.92,1,0,2,0.03
2013-10-14,65,62,57,62,58,53,90,88,84,30.02,29.95,1,0,2,0.08
2013-10-15,70,64,52,63,58,48,88,83,72,29.96,29.83,0,0,3,0.00
2013-10-16,68,65,60,63,60,55,89,86,82,29.84,29.74,0,0,2,0.00
2013-10-17,74,67,58,67,63,54,88,85,76,29.75,29.63,1,0,4,0.00
2013-10-18,66,62,58,62,56,52,89,79,65,29.83,29.67,0,0,1,0.00
2013-10-19,70,63,58,65,59,54,89,87,84,29.76,29.60,0,0,1,0.00
2013-10-20,62,54,44,49,45,41,89,72,57,29.90,29.82,0,0,3,0.01
2013-10-21,65,55,36,55,49,33,89,79,58,29.96,29.80,1,0,2,0.00
2013-10-22,64,58,50,60,55,46,89,87,84,29.80,29.59,0,0,0,0.00
2013-10-23,65,58,45,56,44,34,87,63,40,29.80,29.48,3,1,7,0.00
2013-10-24,57,48,35,44,38,32,90,71,47,29.97,29.80,2,0,6,0.00
2013-10-25,54,47,33,41,35,31,90,65,42,30.16,29.97,1,0,5,0.00
2013-10-26,56,44,28,41,35,25,90,72,46,30.16,29.88,2,0,6,0.00
2013-10-27,66,56,43,51,46,40,89,69,48,29.92,29.83,1,0,6,0.00
2013-10-28,63,56,47,58,52,43,89,86,78,30.05,29.99,0,0,0,0.00
2013-10-29,70,60,50,61,54,46,88,81,67,30.12,30.04,1,0,2,0.03
2013-10-30,73,62,49,63,56,44,88,82,66,30.08,29.94,1,0,4,0.00
2013-10-31,73,66,54,63,59,49,87,80,65,29.96,29.71,1,0,6,0.00
2013-11-1,71,67,59,67,62,54,88,85,82,29.71,29.46,1,0,4,1.01
2013-11-2,68,59,48,56,51,45,88,76,48,29.73,29.49,2,0,5,0.00
2013-11-3,61,51,38,45,40,35,89,70,47,30.15,29.72,1,0,7,0.00
2013-11-4,54,44,32,41,36,29,89,74,50,30.34,30.15,1,0,3,0.00
2013-11-5,57,51,36,49,46,33,89,81,70,30.33,30.21,1,0,4,0.00
2013-11-6,68,58,47,58,52,43,89,81,68,30.21,29.90,1,0,2,0.00
2013-11-7,68,59,45,62,51,36,87,75,62,29.90,29.71,1,0,5,0.01
2013-11-8,55,44,30,36,32,28,90,66,37,30.12,29.89,2,0,3,0.00
2013-11-9,58,47,29,41,36,26,90,68,41,30.18,29.99,2,0,4,0.00
2013-11-10,70,58,42,44,40,35,85,56,30,30.03,29.85,2,0,6,0.00
2013-11-11,57,46,31,39,34,28,89,66,39,30.15,29.94,1,0,3,0.00
2013-11-12,60,44,31,44,36,28,90,75,47,30.22,29.87,2,0,5,0.04
2013-11-13,43,34,24,28,23,21,90,66,42,30.33,30.22,1,0,5,0.00
2013-11-14,55,41,24,32,27,21,90,62,32,30.28,30.14,2,0,5,0.00
2013-11-15,58,48,28,52,42,25,90,78,52,30.16,30.00,1,0,1,0.00
2013-11-16,67,58,47,59,53,44,89,85,76,30.06,29.98,1,0,2,0.00
2013-11-17,70,65,50,63,60,46,87,83,77,30.00,29.68,1,0,2,0.10
2013-11-18,74,63,50,63,52,34,87,69,41,29.75,29.57,2,0,7,0.07
2013-11-19,55,46,36,36,33,30,87,61,41,30.10,29.75,1,0,5,0.00
2013-11-20,53,45,37,37,35,30,89,69,53,30.24,30.09,1,0,4,0.00
2013-11-21,60,52,39,50,46,36,89,81,68,30.29,30.17,0,0,2,0.00
2013-11-22,69,61,46,62,56,42,89,84,75,30.19,29.88,2,0,5,0.01
2013-11-23,60,53,38,56,41,26,86,65,43,29.95,29.82,1,0,4,0.02
2013-11-24,38,31,22,16,11,6,74,45,30,30.34,30.20,2,0,6,0.00
2013-11-25,42,34,18,25,17,11,89,52,29,30.40,30.17,1,0,2,0.00
2013-11-26,64,47,36,59,41,21,89,82,48,30.18,29.38,2,0,5,0.95
2013-11-27,46,37,27,41,32,22,89,84,69,29.97,29.32,2,0,5,0.42
2013-11-28,43,32,21,29,24,18,90,74,47,30.29,29.97,1,0,4,0.00
2013-11-29,51,37,21,31,27,19,90,71,44,30.43,30.28,1,0,4,0.00
2013-11-30,48,37,27,36,30,24,90,78,61,30.44,30.17,1,0,3,0.00
2013-12-1,58,49,38,44,40,35,89,73,49,30.05,29.83,1,0,3,0.00
2013-12-2,60,47,36,47,41,33,90,81,58,29.73,29.60,1,0,3,0.00
2013-12-3,54,48,31,49,43,28,89,85,78,29.79,29.67,0,0,1,0.00
2013-12-4,65,56,49,59,52,46,89,87,82,29.89,29.78,0,0,1,0.00
2013-12-5,66,63,51,62,58,47,87,84,82,29.92,29.82,1,0,3,0.04
2013-12-6,77,70,65,66,64,60,88,81,69,29.86,29.75,3,1,7,0.00
2013-12-7,67,47,44,64,42,37,90,83,75,30.23,29.79,1,0,5,0.21
2013-12-8,35,34,34,32,32,31,90,90,89,30.23,30.10,1,0,6,0.06
2013-12-9,45,41,35,41,38,32,87,86,85,30.00,29.86,1,0,2,0.19
2013-12-10,48,42,28,44,38,25,90,86,69,30.12,29.70,1,0,3,0.40
2013-12-11,48,36,21,34,28,19,90,76,48,30.26,30.09,1,0,3,0.00
2013-12-12,44,34,24,28,24,20,90,68,41,30.22,30.09,1,0,7,0.00
2013-12-13,51,37,20,32,27,18,91,69,36,30.20,30.07,2,0,4,0.00
2013-12-14,46,42,36,40,37,34,90,85,67,30.02,29.58,1,0,2,0.86
2013-12-15,54,44,30,44,35,28,90,72,56,29.87,29.57,2,1,5,0.02
2013-12-16,55,41,26,40,34,24,90,78,51,29.98,29.89,1,0,4,0.00
2013-12-17,60,48,29,42,38,26,90,68,47,29.92,29.68,2,0,6,0.00
2013-12-18,50,39,27,34,24,20,87,57,32,30.09,29.82,2,0,7,0.00
2013-12-19,61,45,24,36,31,22,90,63,27,30.13,30.02,1,0,5,0.00
2013-12-20,65,54,37,55,48,32,89,80,63,30.04,29.91,2,0,5,0.00
2013-12-21,72,62,42,66,57,39,89,84,70,29.95,29.83,2,0,4,0.00
2013-12-22,77,70,63,68,63,58,88,79,69,29.87,29.80,2,1,6,0.19
2013-12-23,66,59,46,60,54,40,89,84,79,29.94,29.76,2,0,4,1.66
2013-12-24,47,40,30,34,28,18,80,62,50,30.25,29.99,2,0,7,0.00
2013-12-25,40,29,22,22,18,14,90,64,37,30.35,30.20,1,0,2,0.00
2013-12-26,52,38,23,34,30,21,90,76,43,30.21,30.04,1,0,3,0.01
2013-12-27,51,37,23,33,26,21,91,69,36,30.26,30.17,1,0,2,0.00
2013-12-28,58,44,22,41,33,20,91,70,34,30.21,29.96,1,0,3,0.00
2013-12-29,55,48,41,50,44,36,88,86,83,29.72,29.51,2,0,5,2.06
2013-12-30,54,45,32,47,40,29,88,83,69,29.93,29.72,1,0,2,0.00
2013-12-31,50,40,29,39,31,25,90,75,38,30.15,29.91,3,0,4,0.00
2014-1-1,50,39,28,34,30,26,90,73,42,30.22,29.96,1,0,3,0.00
2014-1-2,47,44,37,44,40,34,90,87,83,29.80,29.39,1,0,2,0.32